Time;durP1;ratioP1;P1;durP2;ratioP2;P2;SDS_P1;SDS_P2;PMS_P1;PMS_P2;Temp;Humidity;BMP_temperature;BMP_pressure;BME280_temperature;BME280_humidity;BME280_pressure;Samples;Min_cycle;Max_cycle;Signal;HPM_P1;HPM_P2
2023/11/28 00:03:38;;;;;;;54.30;30.60;;;;;;;1.99;62.91;97377.60;234046;215;148293;-61
2023/11/28 00:08:41;;;;;;;53.50;29.30;;;;;;;1.98;62.79;97371.05;234249;215;138873;-61
2023/11/28 00:13:45;;;;;;;45.10;26.50;;;;;;;1.95;62.72;97365.98;234117;215;137894;-61
2023/11/28 00:18:48;;;;;;;50.70;28.70;;;;;;;1.93;62.90;97359.40;233955;215;148375;-61
2023/11/28 00:23:51;;;;;;;46.20;27.00;;;;;;;1.95;62.90;97357.77;234281;215;138827;-61
2023/11/28 00:28:54;;;;;;;48.40;28.50;;;;;;;1.97;62.94;97356.56;234401;215;137756;-61
2023/11/28 00:33:57;;;;;;;45.70;25.70;;;;;;;1.98;62.97;97352.02;234203;215;147805;-61
2023/11/28 00:39:01;;;;;;;45.20;25.90;;;;;;;1.99;63.09;97348.05;234216;213;139582;-61
2023/11/28 00:44:05;;;;;;;43.80;25.40;;;;;;;1.97;63.28;97342.42;234204;214;136943;-61
2023/11/28 00:49:12;;;;;;;44.10;25.40;;;;;;;1.96;63.68;97339.86;233963;215;148334;-62
2023/11/28 00:54:16;;;;;;;45.50;26.10;;;;;;;1.94;64.00;97334.36;234176;215;138539;-61
2023/11/28 00:59:20;;;;;;;46.20;26.30;;;;;;;1.94;64.02;97329.83;234326;213;137070;-62
2023/11/28 01:04:23;;;;;;;40.50;23.00;;;;;;;1.92;64.01;97327.66;234444;215;148080;-62
2023/11/28 01:09:27;;;;;;;38.50;22.30;;;;;;;1.89;64.17;97315.92;234241;215;140576;-62
2023/11/28 01:14:31;;;;;;;42.20;23.70;;;;;;;1.88;64.60;97308.13;234203;214;137897;-63
2023/11/28 01:19:34;;;;;;;41.50;24.00;;;;;;;1.88;64.70;97299.90;234188;213;147522;-63
2023/11/28 01:24:39;;;;;;;36.30;22.40;;;;;;;1.87;64.86;97286.14;234169;215;139437;-62
2023/11/28 01:29:43;;;;;;;;;;;;;;;1.89;65.01;97273.77;234214;213;138590;-62
2023/11/28 01:34:47;;;;;;;39.70;22.90;;;;;;;1.87;64.99;97273.90;234487;215;147718;-62
2023/11/28 01:39:50;;;;;;;40.20;22.20;;;;;;;1.84;65.24;97267.42;234143;215;139625;-63
2023/11/28 01:44:54;;;;;;;44.70;24.30;;;;;;;1.88;65.32;97256.17;234222;215;138443;-62
2023/11/28 01:49:57;;;;;;;39.80;22.80;;;;;;;1.92;65.37;97247.41;234275;215;147630;-62
2023/11/28 01:55:01;;;;;;;38.90;22.90;;;;;;;1.95;65.50;97236.39;234172;215;138802;-62
2023/11/28 02:00:05;;;;;;;37.80;22.70;;;;;;;2.02;65.25;97226.36;234214;215;138195;-62
2023/11/28 02:05:16;;;;;;;39.60;23.10;;;;;;;2.04;65.26;97226.27;234380;215;147432;-62
2023/11/28 02:10:20;;;;;;;40.90;23.00;;;;;;;2.03;65.37;97211.63;234362;215;139033;-63
2023/11/28 02:15:42;;;;;;;38.20;22.70;;;;;;;2.04;65.42;97191.61;234237;215;137613;-61
2023/11/28 02:20:45;;;;;;;40.70;23.30;;;;;;;2.03;65.50;97184.13;234257;215;147355;-62
2023/11/28 02:25:50;;;;;;;38.00;21.80;;;;;;;2.01;65.58;97176.41;234223;216;138941;-62
2023/11/28 02:30:56;;;;;;;;;;;;;;;1.98;65.60;97162.96;234296;216;137417;-62
2023/11/28 02:35:59;;;;;;;34.60;21.30;;;;;;;1.94;65.65;97148.15;233644;215;147901;-59
2023/11/28 02:41:02;;;;;;;35.10;20.50;;;;;;;1.92;66.02;97139.17;233809;213;138775;-60
2023/11/28 02:46:06;;;;;;;30.30;19.70;;;;;;;1.92;65.99;97128.52;234175;216;138654;-60
2023/11/28 02:51:16;;;;;;;34.00;19.90;;;;;;;1.91;66.14;97126.09;234180;216;148932;-58
2023/11/28 02:56:20;;;;;;;30.40;19.30;;;;;;;1.87;66.20;97120.05;234234;215;140637;-60
2023/11/28 03:01:23;;;;;;;30.30;19.00;;;;;;;1.83;66.61;97111.85;234280;214;136905;-60
2023/11/28 03:06:26;;;;;;;31.60;19.40;;;;;;;1.83;66.61;97101.36;234279;215;147492;-59
2023/11/28 03:11:29;;;;;;;31.00;19.00;;;;;;;1.84;66.70;97090.14;234192;216;138880;-59
2023/11/28 03:16:32;;;;;;;30.80;18.30;;;;;;;1.83;66.73;97079.53;234437;216;138078;-60
2023/11/28 03:21:35;;;;;;;29.80;17.40;;;;;;;1.81;66.98;97074.74;234340;213;148162;-60
2023/11/28 03:26:39;;;;;;;30.90;17.30;;;;;;;1.83;67.07;97064.16;234226;215;139425;-60
2023/11/28 03:31:42;;;;;;;26.60;17.70;;;;;;;1.82;67.27;97062.43;234291;208;137699;-60
2023/11/28 03:36:45;;;;;;;26.70;16.40;;;;;;;1.83;67.31;97059.58;234342;216;147245;-61
2023/11/28 03:41:49;;;;;;;25.80;16.30;;;;;;;1.86;67.42;97056.63;234184;215;140020;-60
2023/11/28 03:46:52;;;;;;;24.00;15.60;;;;;;;1.94;67.54;97053.89;234385;216;140704;-64
2023/11/28 03:51:55;;;;;;;23.00;14.70;;;;;;;2.04;67.39;97044.36;234262;214;148056;-62
2023/11/28 03:56:59;;;;;;;26.10;16.50;;;;;;;2.15;67.19;97033.94;234248;215;138951;-63
2023/11/28 04:02:02;;;;;;;23.00;14.70;;;;;;;2.19;67.12;97024.58;234351;215;137758;-62
2023/11/28 04:07:06;;;;;;;22.40;15.20;;;;;;;2.22;67.09;97012.16;234331;215;148361;-62
2023/11/28 04:12:09;;;;;;;22.40;14.80;;;;;;;2.25;67.00;96998.49;234330;216;139755;-62
2023/11/28 04:17:12;;;;;;;24.30;15.80;;;;;;;2.20;67.14;96990.37;234393;215;136672;-62
2023/11/28 04:22:15;;;;;;;22.60;14.30;;;;;;;2.18;67.26;96988.30;234282;216;147699;-63
2023/11/28 04:27:21;;;;;;;22.40;15.00;;;;;;;2.18;67.22;96981.08;234190;213;139575;-61
2023/11/28 04:32:25;;;;;;;22.50;14.60;;;;;;;2.16;67.32;96969.30;234213;216;138624;-62
2023/11/28 04:37:29;;;;;;;21.30;14.50;;;;;;;2.15;67.46;96964.83;234275;215;147794;-62
2023/11/28 04:42:33;;;;;;;29.50;14.50;;;;;;;2.14;67.66;96958.08;234240;215;138834;-62
2023/11/28 04:47:36;;;;;;;144.50;104.00;;;;;;;2.42;68.75;96947.06;234210;213;137132;-61
2023/11/28 04:52:39;;;;;;;25.30;16.60;;;;;;;2.45;67.93;96943.19;234258;215;147609;-61
2023/11/28 04:57:43;;;;;;;73.80;49.10;;;;;;;2.40;67.92;96931.25;234271;215;139243;-59
2023/11/28 05:02:47;;;;;;;28.40;18.40;;;;;;;2.37;68.58;96916.39;234243;215;138194;-59
2023/11/28 05:07:50;;;;;;;21.60;14.50;;;;;;;2.71;68.02;96898.84;234299;208;147278;-59
2023/11/28 05:12:54;;;;;;;23.20;14.10;;;;;;;2.63;67.27;96887.77;234271;215;138936;-59
2023/11/28 05:17:57;;;;;;;20.70;14.90;;;;;;;2.58;67.23;96881.42;234183;215;137380;-59
2023/11/28 05:23:02;;;;;;;22.70;15.60;;;;;;;2.57;67.21;96876.63;234373;213;147791;-59
2023/11/28 05:28:06;;;;;;;25.00;15.10;;;;;;;2.48;67.08;96875.10;234066;215;139509;-59
2023/11/28 05:33:10;;;;;;;36.70;25.40;;;;;;;2.57;68.40;96867.16;234262;214;137779;-59
2023/11/28 05:38:13;;;;;;;26.10;16.90;;;;;;;2.64;67.28;96860.78;234190;213;148575;-60
2023/11/28 05:43:18;;;;;;;24.20;17.00;;;;;;;2.53;66.98;96852.69;234204;215;138806;-58
2023/11/28 05:48:22;;;;;;;28.20;17.10;;;;;;;2.45;67.03;96848.68;234259;213;137026;-59
2023/11/28 05:53:25;;;;;;;24.10;16.70;;;;;;;2.35;66.97;96842.64;234321;214;147709;-60
2023/11/28 05:58:29;;;;;;;26.20;17.00;;;;;;;2.28;67.23;96847.50;234448;215;140186;-59
2023/11/28 06:03:32;;;;;;;24.30;16.30;;;;;;;2.21;67.17;96850.03;234167;215;138990;-59
2023/11/28 06:08:36;;;;;;;22.90;16.00;;;;;;;2.14;67.32;96845.07;234195;216;147889;-59
2023/11/28 06:13:40;;;;;;;25.90;16.60;;;;;;;2.11;67.58;96849.27;234171;215;138490;-60
2023/11/28 06:18:43;;;;;;;22.90;15.70;;;;;;;2.10;67.62;96850.20;234194;214;138593;-59
2023/11/28 06:23:47;;;;;;;23.00;15.40;;;;;;;2.05;67.73;96845.41;234210;216;147360;-59
2023/11/28 06:28:50;;;;;;;22.80;15.30;;;;;;;2.06;67.75;96843.27;234322;212;138813;-59
2023/11/28 06:33:53;;;;;;;22.60;15.10;;;;;;;2.06;67.91;96844.48;233686;213;137755;-59
2023/11/28 06:38:56;;;;;;;23.80;15.30;;;;;;;2.10;67.99;96842.52;234153;214;148373;-56
2023/11/28 06:43:59;;;;;;;23.00;16.10;;;;;;;2.08;68.03;96834.61;234254;208;139483;-55
2023/11/28 06:49:06;;;;;;;26.40;15.70;;;;;;;2.08;68.12;96830.25;234275;216;137286;-56
2023/11/28 06:54:11;;;;;;;24.90;16.00;;;;;;;2.12;68.25;96830.30;234220;212;147420;-55
2023/11/28 06:59:16;;;;;;;24.80;16.70;;;;;;;2.23;68.17;96827.91;234334;213;139443;-56
2023/11/28 07:04:19;;;;;;;25.50;16.50;;;;;;;2.33;67.95;96826.73;234188;213;139105;-56
2023/11/28 07:09:22;;;;;;;23.70;15.90;;;;;;;2.40;67.84;96821.73;234264;215;147313;-56
2023/11/28 07:14:26;;;;;;;19.70;14.20;;;;;;;2.42;67.65;96816.66;234268;215;139304;-55
2023/11/28 07:19:29;;;;;;;23.40;15.40;;;;;;;2.45;67.61;96818.75;234234;215;137411;-55
2023/11/28 07:24:32;;;;;;;23.30;14.80;;;;;;;2.45;67.63;96816.10;234276;215;147410;-54
2023/11/28 07:29:36;;;;;;;21.30;13.50;;;;;;;2.44;67.56;96818.64;234217;215;139386;-58
2023/11/28 07:34:39;;;;;;;21.30;14.00;;;;;;;2.43;67.69;96819.73;234436;215;137787;-55
2023/11/28 07:39:42;;;;;;;21.30;14.00;;;;;;;2.49;67.67;96819.22;234226;215;149242;-56
2023/11/28 07:44:45;;;;;;;21.50;14.40;;;;;;;2.46;67.52;96814.50;234156;208;138924;-55
2023/11/28 07:49:49;;;;;;;21.60;14.20;;;;;;;2.43;67.81;96814.48;234239;213;137039;-55
2023/11/28 07:54:52;;;;;;;19.70;13.80;;;;;;;2.46;67.86;96810.98;234250;215;147523;-56
2023/11/28 07:59:55;;;;;;;20.50;14.00;;;;;;;2.50;67.88;96806.67;234183;215;139134;-55
2023/11/28 08:04:58;;;;;;;20.50;13.70;;;;;;;2.52;67.89;96809.16;234464;214;136899;-55
2023/11/28 08:10:05;;;;;;;21.50;14.10;;;;;;;2.54;67.87;96805.20;234331;213;148109;-54
2023/11/28 08:15:08;;;;;;;20.40;13.90;;;;;;;2.58;67.85;96806.17;234320;213;138739;-56
2023/11/28 08:20:12;;;;;;;22.40;13.70;;;;;;;2.60;67.84;96799.00;234227;215;140472;-55
2023/11/28 08:25:15;;;;;;;20.70;14.10;;;;;;;2.64;67.83;96793.17;234133;212;147489;-57
2023/11/28 08:30:18;;;;;;;21.10;14.00;;;;;;;2.65;67.53;96795.38;234187;215;138682;-57
2023/11/28 08:35:21;;;;;;;22.40;14.30;;;;;;;2.68;67.79;96789.04;234417;212;136813;-59
2023/11/28 08:40:25;;;;;;;19.90;13.20;;;;;;;2.69;67.75;96792.51;234334;212;150828;-58
2023/11/28 08:45:28;;;;;;;21.90;13.90;;;;;;;2.75;67.85;96789.96;234122;215;139113;-60
2023/11/28 08:50:31;;;;;;;21.00;14.30;;;;;;;2.85;67.52;96785.43;234244;214;138175;-61
2023/11/28 08:55:34;;;;;;;450.30;281.30;;;;;;;2.96;67.77;96782.45;234275;215;147291;-61
2023/11/28 09:00:38;;;;;;;47.50;31.30;;;;;;;3.22;68.67;96781.36;234026;215;140319;-61
2023/11/28 09:05:41;;;;;;;19.90;14.50;;;;;;;3.40;67.18;96775.04;234144;213;137864;-59
2023/11/28 09:10:44;;;;;;;23.80;15.10;;;;;;;3.34;66.54;96774.95;234279;215;147644;-61
2023/11/28 09:15:47;;;;;;;23.20;15.10;;;;;;;3.28;66.45;96767.66;234233;215;140269;-61
2023/11/28 09:20:50;;;;;;;19.60;13.90;;;;;;;3.24;66.44;96757.42;234222;214;138015;-61
2023/11/28 09:25:54;;;;;;;41.50;26.60;;;;;;;3.24;67.24;96757.95;234199;213;148724;-61
2023/11/28 09:31:05;;;;;;;22.70;15.40;;;;;;;3.26;66.61;96760.61;234096;214;138846;-61
2023/11/28 09:36:09;;;;;;;22.30;15.00;;;;;;;3.21;66.59;96752.50;234200;213;137848;-60
2023/11/28 09:41:22;;;;;;;23.00;14.00;;;;;;;3.24;66.57;96755.83;234243;213;148236;-60
2023/11/28 09:46:35;;;;;;;20.30;13.70;;;;;;;3.18;66.60;96748.52;234199;214;139450;-59
2023/11/28 09:51:40;;;;;;;19.70;14.10;;;;;;;3.14;66.81;96747.27;234169;213;138020;-61
2023/11/28 09:56:47;;;;;;;44.20;30.20;;;;;;;3.13;66.80;96741.39;234207;209;149094;-61
2023/11/28 10:01:51;;;;;;;25.20;18.30;;;;;;;3.38;69.18;96732.59;234117;213;139498;-60
2023/11/28 10:07:02;;;;;;;24.20;16.20;;;;;;;3.48;67.01;96717.49;234111;212;138066;-59
2023/11/28 10:12:07;;;;;;;22.90;14.90;;;;;;;3.34;66.58;96707.64;234167;208;148856;-61
2023/11/28 10:17:10;;;;;;;23.50;15.80;;;;;;;3.25;66.49;96702.83;234260;213;139634;-59
2023/11/28 10:22:13;;;;;;;23.70;15.70;;;;;;;3.20;66.62;96698.98;234210;214;138703;-60
2023/11/28 10:27:17;;;;;;;89.90;60.90;;;;;;;3.20;67.38;96697.27;234211;213;148435;-62
2023/11/28 10:32:27;;;;;;;25.40;16.60;;;;;;;3.33;67.09;96690.52;234229;215;138850;-59
2023/11/28 10:37:34;;;;;;;19.00;13.90;;;;;;;3.31;66.59;96689.98;234140;209;138368;-61
2023/11/28 10:42:41;;;;;;;391.20;264.20;;;;;;;3.37;67.64;96679.05;234198;213;147807;-54
2023/11/28 10:47:45;;;;;;;19.80;14.40;;;;;;;3.57;67.97;96674.96;234074;208;138709;-65
2023/11/28 10:52:51;;;;;;;18.40;14.00;;;;;;;3.58;66.15;96674.05;234173;213;138041;-62
2023/11/28 10:58:04;;;;;;;18.00;13.20;;;;;;;3.51;65.89;96672.05;234159;213;147798;-64
2023/11/28 11:03:08;;;;;;;17.30;13.00;;;;;;;3.44;65.95;96675.35;233993;214;138864;-62
2023/11/28 11:08:12;;;;;;;21.80;13.50;;;;;;;3.41;66.04;96672.15;234099;209;137578;-61
2023/11/28 11:13:44;;;;;;;17.60;12.30;;;;;;;3.37;66.08;96670.64;234089;212;148476;-62
2023/11/28 11:18:52;;;;;;;16.60;12.50;;;;;;;3.31;66.23;96664.59;233985;214;139137;-61
2023/11/28 11:23:56;;;;;;;15.80;11.60;;;;;;;3.29;66.45;96664.04;234082;212;136976;-61
2023/11/28 11:29:02;;;;;;;16.10;10.40;;;;;;;3.26;66.35;96655.33;234214;208;147572;-61
2023/11/28 11:34:35;;;;;;;151.30;97.60;;;;;;;3.24;66.90;96658.42;234159;213;140131;-61
2023/11/28 11:39:39;;;;;;;14.20;10.70;;;;;;;3.43;67.60;96664.06;234196;212;137012;-59
2023/11/28 11:44:47;;;;;;;185.20;118.70;;;;;;;3.50;67.41;96670.77;234105;212;147654;-61
2023/11/28 11:49:51;;;;;;;16.00;11.50;;;;;;;3.76;68.51;96671.16;234056;208;139572;-60
2023/11/28 11:55:08;;;;;;;13.90;10.00;;;;;;;3.83;66.24;96677.48;234139;208;137496;-60
2023/11/28 12:00:13;;;;;;;15.30;10.30;;;;;;;3.79;66.03;96683.52;234256;213;147297;-61
2023/11/28 12:05:16;;;;;;;16.00;10.30;;;;;;;3.74;65.92;96687.58;234291;213;138894;-62
2023/11/28 12:10:20;;;;;;;35.40;24.70;;;;;;;3.73;66.41;96685.21;234200;213;137003;-60
2023/11/28 12:15:23;;;;;;;13.80;10.20;;;;;;;3.84;66.69;96679.33;234149;214;148544;-60
2023/11/28 12:20:26;;;;;;;12.40;10.10;;;;;;;3.81;65.91;96676.95;234165;214;139095;-60
2023/11/28 12:25:43;;;;;;;13.20;10.00;;;;;;;3.72;65.86;96679.69;234107;212;137329;-60
2023/11/28 12:30:48;;;;;;;14.50;9.30;;;;;;;3.66;65.94;96678.76;233631;213;148242;-59
2023/11/28 12:35:51;;;;;;;14.10;9.90;;;;;;;3.59;66.02;96680.84;234122;213;138910;-59
2023/11/28 12:40:56;;;;;;;13.30;9.70;;;;;;;3.56;66.10;96683.30;234125;213;138715;-62
2023/11/28 12:46:14;;;;;;;19.30;13.50;;;;;;;3.58;66.95;96687.89;234117;214;147318;-60
2023/11/28 12:51:17;;;;;;;13.50;10.00;;;;;;;3.56;66.46;96693.48;234145;213;138911;-60
2023/11/28 12:56:20;;;;;;;14.90;10.60;;;;;;;3.47;66.56;96698.44;234160;214;137102;-59
2023/11/28 13:01:27;;;;;;;14.60;10.50;;;;;;;3.42;66.69;96698.36;234124;213;147421;-59
2023/11/28 13:06:30;;;;;;;13.70;9.90;;;;;;;3.40;66.65;96704.08;234102;213;139360;-60
2023/11/28 13:11:53;;;;;;;250.30;157.50;;;;;;;3.38;67.07;96705.47;234137;213;138526;-63
2023/11/28 13:16:56;;;;;;;16.70;11.20;;;;;;;3.43;67.47;96711.91;234283;212;148302;-60
2023/11/28 13:22:14;;;;;;;13.30;10.00;;;;;;;3.41;66.93;96711.73;234126;209;139785;-60
2023/11/28 13:27:17;;;;;;;15.40;10.80;;;;;;;3.44;66.72;96716.39;234203;213;138258;-62
2023/11/28 13:32:20;;;;;;;16.90;10.30;;;;;;;3.45;66.48;96720.36;234232;214;147630;-59
2023/11/28 13:37:23;;;;;;;15.80;10.80;;;;;;;3.44;66.41;96722.36;234049;213;139368;-59
2023/11/28 13:42:27;;;;;;;14.00;10.70;;;;;;;3.43;66.23;96725.95;234158;215;137329;-59
2023/11/28 13:47:30;;;;;;;16.00;10.70;;;;;;;3.39;66.06;96735.01;234198;214;148228;-60
2023/11/28 13:52:33;;;;;;;15.20;10.80;;;;;;;3.31;66.23;96742.03;234191;213;138715;-59
2023/11/28 13:57:36;;;;;;;15.50;10.70;;;;;;;3.27;66.36;96748.59;234210;213;137758;-58
2023/11/28 14:02:40;;;;;;;14.10;10.20;;;;;;;3.24;66.39;96753.42;234195;207;148017;-60
2023/11/28 14:07:48;;;;;;;15.70;10.40;;;;;;;3.20;66.53;96758.41;234134;215;138826;-59
2023/11/28 14:12:51;;;;;;;15.90;11.40;;;;;;;3.16;66.48;96759.73;234178;212;137559;-59
2023/11/28 14:17:54;;;;;;;100.80;61.20;;;;;;;3.23;69.77;96767.27;234164;214;147669;-58
2023/11/28 14:22:58;;;;;;;15.40;11.40;;;;;;;3.43;67.53;96767.31;234248;212;139584;-55
2023/11/28 14:28:01;;;;;;;13.40;9.50;;;;;;;3.28;66.54;96769.39;234083;212;137160;-59
2023/11/28 14:33:06;;;;;;;16.30;10.10;;;;;;;3.18;66.56;96773.91;234185;214;147791;-58
2023/11/28 14:38:10;;;;;;;14.10;9.00;;;;;;;3.13;66.57;96777.30;234130;215;139476;-59
2023/11/28 14:43:13;;;;;;;12.40;9.00;;;;;;;3.07;66.62;96779.77;234207;216;137348;-59
2023/11/28 14:48:17;;;;;;;11.60;9.10;;;;;;;3.04;66.76;96794.15;234181;212;147994;-60
2023/11/28 14:53:20;;;;;;;12.00;8.90;;;;;;;3.03;67.24;96797.39;234299;209;138475;-58
2023/11/28 14:58:24;;;;;;;12.30;8.90;;;;;;;3.05;68.10;96803.90;234074;213;137676;-63
2023/11/28 15:03:27;;;;;;;13.70;9.30;;;;;;;3.19;67.69;96806.81;234119;214;149313;-59
2023/11/28 15:08:31;;;;;;;12.00;8.30;;;;;;;3.13;67.07;96820.02;234102;216;139089;-60
2023/11/28 15:13:35;;;;;;;13.70;9.30;;;;;;;3.13;66.87;96822.84;234173;213;137933;-59
2023/11/28 15:18:38;;;;;;;232.70;142.00;;;;;;;3.27;68.42;96828.34;234236;208;148450;-61
2023/11/28 15:23:41;;;;;;;18.30;11.70;;;;;;;3.53;67.24;96833.73;234017;213;138977;-61
2023/11/28 15:28:45;;;;;;;14.10;10.10;;;;;;;3.45;65.93;96833.26;234282;214;139895;-60
2023/11/28 15:33:48;;;;;;;14.50;10.50;;;;;;;3.33;65.94;96838.94;234088;216;149698;-59
2023/11/28 15:38:53;;;;;;;18.70;11.70;;;;;;;3.23;66.21;96849.27;234208;213;139335;-59
2023/11/28 15:43:56;;;;;;;35.20;24.30;;;;;;;3.21;67.21;96854.14;234156;213;136601;-60
2023/11/28 15:48:59;;;;;;;16.90;11.30;;;;;;;3.26;66.34;96855.59;233874;209;148035;-64
2023/11/28 15:54:04;;;;;;;16.50;11.30;;;;;;;3.15;65.74;96873.81;234174;208;139007;-61
2023/11/28 15:59:07;;;;;;;16.00;11.20;;;;;;;3.08;65.85;96872.73;234302;215;137270;-60
2023/11/28 16:04:12;;;;;;;17.80;12.10;;;;;;;3.03;66.01;96872.14;234146;214;147586;-62
2023/11/28 16:09:17;;;;;;;20.40;12.90;;;;;;;3.00;66.05;96877.63;234161;214;138912;-64
2023/11/28 16:14:20;;;;;;;21.20;14.20;;;;;;;2.93;65.99;96884.59;234189;213;138011;-64
2023/11/28 16:19:23;;;;;;;19.50;13.20;;;;;;;2.84;65.87;96891.66;234129;213;147582;-63
2023/11/28 16:24:27;;;;;;;17.50;12.00;;;;;;;2.75;65.85;96903.07;234133;213;138855;-61
2023/11/28 16:29:33;;;;;;;28.70;20.00;;;;;;;2.79;67.05;96908.08;234200;213;137011;-59
2023/11/28 16:34:36;;;;;;;22.00;14.10;;;;;;;2.87;66.21;96912.82;234280;213;147618;-60
2023/11/28 16:39:40;;;;;;;19.90;14.00;;;;;;;2.83;66.03;96922.00;234171;214;138842;-60
2023/11/28 16:44:44;;;;;;;20.60;14.10;;;;;;;2.79;65.91;96932.57;234167;214;136965;-59
2023/11/28 16:49:49;;;;;;;21.00;13.80;;;;;;;2.76;65.78;96949.05;234187;213;148396;-58
2023/11/28 16:54:52;;;;;;;22.80;14.90;;;;;;;2.75;65.86;96964.38;234179;213;139412;-60
2023/11/28 16:59:57;;;;;;;23.20;15.40;;;;;;;2.75;65.66;96973.11;234165;213;137035;-60
2023/11/28 17:05:00;;;;;;;23.00;14.80;;;;;;;2.72;65.40;96986.83;234321;214;147584;-60
2023/11/28 17:10:03;;;;;;;22.50;15.00;;;;;;;2.68;65.42;96995.83;234157;213;138437;-60
2023/11/28 17:15:07;;;;;;;23.40;13.80;;;;;;;2.67;65.26;97000.76;234146;209;137730;-63
2023/11/28 17:20:11;;;;;;;24.90;16.00;;;;;;;2.64;65.19;97007.44;234194;213;148600;-60
2023/11/28 17:25:14;;;;;;;23.70;15.30;;;;;;;2.63;65.04;97011.58;234094;215;138871;-62
2023/11/28 17:30:19;;;;;;;24.20;15.30;;;;;;;2.60;64.94;97017.80;234220;213;138440;-62
2023/11/28 17:35:22;;;;;;;266.40;188.40;;;;;;;2.60;65.46;97022.04;234323;208;148620;-62
2023/11/28 17:40:25;;;;;;;32.80;21.30;;;;;;;2.74;65.78;97020.43;234116;214;138862;-61
2023/11/28 17:45:29;;;;;;;65.40;38.30;;;;;;;2.75;66.26;97027.90;234108;215;137117;-58
2023/11/28 17:50:32;;;;;;;28.40;17.90;;;;;;;2.77;65.11;97032.33;234144;214;147641;-58
2023/11/28 17:55:41;;;;;;;25.10;16.70;;;;;;;2.69;64.96;97033.88;234190;213;142649;-56
2023/11/28 18:00:44;;;;;;;24.60;16.90;;;;;;;2.64;64.83;97034.61;234109;208;137042;-58
2023/11/28 18:05:48;;;;;;;25.70;17.20;;;;;;;2.58;64.62;97039.11;234167;213;147239;-59
2023/11/28 18:10:51;;;;;;;27.40;17.40;;;;;;;2.56;64.70;97048.68;234265;213;138897;-58
2023/11/28 18:15:54;;;;;;;41.10;29.20;;;;;;;2.55;65.81;97063.67;234144;213;138383;-59
2023/11/28 18:20:58;;;;;;;29.90;19.50;;;;;;;2.62;64.68;97071.62;234169;208;147529;-59
2023/11/28 18:26:04;;;;;;;31.80;19.70;;;;;;;2.53;64.57;97070.63;234198;213;139004;-59
2023/11/28 18:31:11;;;;;;;33.10;20.90;;;;;;;2.44;64.36;97074.15;234131;213;137022;-59
2023/11/28 18:36:15;;;;;;;39.50;27.20;;;;;;;2.39;64.29;97084.09;234195;213;147752;-59
2023/11/28 18:41:18;;;;;;;98.00;61.10;;;;;;;2.38;65.01;97094.59;234205;212;138872;-60
2023/11/28 18:46:24;;;;;;;36.50;23.70;;;;;;;2.46;64.51;97108.30;234112;213;137232;-59
2023/11/28 18:51:28;;;;;;;102.80;62.30;;;;;;;2.55;65.43;97119.16;234209;213;148345;-59
2023/11/28 18:56:32;;;;;;;38.90;25.00;;;;;;;2.62;64.14;97133.92;233852;213;139034;-58
2023/11/28 19:01:35;;;;;;;33.50;22.10;;;;;;;2.52;63.83;97147.34;234191;214;137285;-57
2023/11/28 19:06:39;;;;;;;74.70;49.30;;;;;;;2.44;63.85;97160.44;234181;212;147936;-58
2023/11/28 19:11:42;;;;;;;32.30;22.30;;;;;;;2.51;64.40;97161.73;234106;209;141688;-57
2023/11/28 19:16:45;;;;;;;30.30;21.20;;;;;;;2.52;63.74;97172.16;234304;215;137316;-57
2023/11/28 19:21:48;;;;;;;31.50;20.70;;;;;;;2.48;63.56;97187.29;234192;216;147493;-57
2023/11/28 19:26:53;;;;;;;30.00;19.80;;;;;;;2.40;63.59;97195.83;234174;213;139803;-59
2023/11/28 19:31:56;;;;;;;31.30;20.70;;;;;;;2.33;63.82;97206.58;234143;213;136808;-58
2023/11/28 19:36:59;;;;;;;31.60;19.90;;;;;;;2.30;63.78;97215.15;234162;214;147140;-59
2023/11/28 19:42:02;;;;;;;29.80;19.60;;;;;;;2.28;63.72;97223.83;234163;213;140012;-58
2023/11/28 19:47:06;;;;;;;29.70;18.70;;;;;;;2.24;63.57;97230.38;234303;213;137510;-59
2023/11/28 19:52:09;;;;;;;27.00;17.80;;;;;;;2.21;63.63;97235.42;234148;212;148366;-58
2023/11/28 19:57:13;;;;;;;26.70;16.90;;;;;;;2.18;63.69;97250.15;233746;212;138856;-59
2023/11/28 20:02:16;;;;;;;27.20;17.20;;;;;;;2.16;63.77;97259.87;234129;214;137965;-58
2023/11/28 20:07:21;;;;;;;26.80;17.70;;;;;;;2.12;63.62;97268.45;234130;214;148238;-59
2023/11/28 20:12:26;;;;;;;26.60;17.30;;;;;;;2.07;63.38;97278.23;234169;214;139516;-59
2023/11/28 20:17:29;;;;;;;28.10;17.90;;;;;;;2.05;63.63;97286.69;234265;209;136854;-59
2023/11/28 20:22:33;;;;;;;25.10;17.10;;;;;;;2.02;63.53;97294.92;234312;213;149238;-59
2023/11/28 20:27:38;;;;;;;29.00;18.30;;;;;;;2.00;63.66;97307.45;234084;213;139844;-59
2023/11/28 20:32:42;;;;;;;25.90;17.70;;;;;;;1.99;63.84;97317.66;234174;214;137909;-60
2023/11/28 20:37:45;;;;;;;25.90;16.80;;;;;;;1.96;63.48;97324.27;234163;213;147641;-59
2023/11/28 20:42:48;;;;;;;30.70;17.60;;;;;;;1.97;63.57;97332.29;234195;212;139010;-59
2023/11/28 20:47:52;;;;;;;25.20;17.40;;;;;;;1.95;63.76;97336.95;234193;213;138122;-58
2023/11/28 20:52:57;;;;;;;29.80;17.50;;;;;;;1.94;63.62;97341.02;234350;215;147295;-58
2023/11/28 20:58:02;;;;;;;27.80;17.20;;;;;;;1.93;63.53;97352.45;234150;213;139435;-59
2023/11/28 21:03:05;;;;;;;30.20;18.70;;;;;;;1.91;63.60;97361.65;234204;212;137796;-58
2023/11/28 21:08:10;;;;;;;26.70;17.80;;;;;;;1.93;63.55;97367.14;234227;209;148677;-59
2023/11/28 21:13:14;;;;;;;27.70;17.50;;;;;;;1.89;63.53;97378.51;234172;209;138957;-58
2023/11/28 21:18:17;;;;;;;29.50;18.20;;;;;;;1.86;63.78;97391.99;234276;208;137274;-59
2023/11/28 21:23:20;;;;;;;28.30;17.90;;;;;;;1.83;63.80;97396.15;234325;213;147647;-59
2023/11/28 21:28:24;;;;;;;26.80;18.30;;;;;;;1.82;63.78;97399.36;234191;213;138977;-58
2023/11/28 21:33:27;;;;;;;30.60;18.50;;;;;;;1.82;63.88;97405.85;234168;213;138488;-58
2023/11/28 21:38:30;;;;;;;27.60;17.40;;;;;;;1.79;63.91;97408.61;234157;214;147584;-57
2023/11/28 21:43:37;;;;;;;27.30;18.90;;;;;;;1.75;63.85;97417.95;234021;213;139380;-58
2023/11/28 21:48:41;;;;;;;27.70;18.30;;;;;;;1.71;64.07;97425.27;234227;213;139381;-55
2023/11/28 21:53:46;;;;;;;28.00;18.00;;;;;;;1.70;64.40;97427.61;234268;213;147475;-57
2023/11/28 21:58:51;;;;;;;31.20;19.50;;;;;;;1.65;64.69;97438.86;234184;214;140499;-58
2023/11/28 22:03:54;;;;;;;30.40;18.80;;;;;;;1.61;64.98;97451.00;234223;213;137999;-57
2023/11/28 22:08:57;;;;;;;30.60;18.20;;;;;;;1.60;65.10;97454.19;234177;215;148047;-57
2023/11/28 22:14:05;;;;;;;28.10;17.40;;;;;;;1.61;65.03;97461.09;234171;212;139327;-57
2023/11/28 22:19:08;;;;;;;31.80;18.30;;;;;;;1.60;64.89;97477.06;234239;209;136839;-58
2023/11/28 22:24:12;;;;;;;28.60;17.40;;;;;;;1.59;64.96;97488.83;234204;213;147806;-57
2023/11/28 22:29:16;;;;;;;31.50;19.40;;;;;;;1.53;64.72;97497.01;234292;213;138804;-58
2023/11/28 22:34:20;;;;;;;29.90;17.60;;;;;;;1.47;64.45;97508.33;234179;209;136675;-56
2023/11/28 22:39:23;;;;;;;29.70;18.40;;;;;;;1.41;64.22;97520.31;234164;215;147717;-58
2023/11/28 22:44:26;;;;;;;26.80;16.60;;;;;;;1.39;64.09;97536.14;234131;213;139338;-56
2023/11/28 22:49:30;;;;;;;24.90;16.20;;;;;;;1.33;64.17;97544.47;234165;214;137508;-57
2023/11/28 22:54:33;;;;;;;24.50;16.00;;;;;;;1.27;64.03;97561.36;234221;213;147303;-58
2023/11/28 22:59:39;;;;;;;23.60;15.60;;;;;;;1.25;64.09;97575.98;234176;214;140078;-58
2023/11/28 23:04:45;;;;;;;25.90;15.50;;;;;;;1.29;63.89;97576.98;234295;213;137523;-57
2023/11/28 23:09:48;;;;;;;;;;;;;;;1.26;63.50;97586.39;234192;213;148126;-58
2023/11/28 23:14:52;;;;;;;29.60;16.40;;;;;;;1.12;63.29;97592.46;234204;212;139075;-57
2023/11/28 23:19:56;;;;;;;26.50;16.00;;;;;;;1.11;63.26;97603.90;234196;213;136915;-58